createdAt,value
2023-01-18T00:00:18.363Z,95.39
2023-01-18T00:01:18.239Z,95.61
2023-01-18T00:02:18.225Z,95.50
2023-01-18T00:03:18.215Z,95.39
2023-01-18T00:04:18.203Z,95.54
2023-01-18T00:05:18.238Z,95.29
2023-01-18T00:06:18.284Z,95.44
2023-01-18T00:07:18.173Z,95.65
2023-01-18T00:08:18.162Z,95.61
2023-01-18T00:09:18.153Z,95.65
2023-01-18T00:10:18.142Z,95.65
2023-01-18T00:11:18.148Z,95.82
2023-01-18T00:12:18.180Z,95.61
2023-01-18T00:13:18.125Z,95.50
2023-01-18T00:14:18.099Z,95.65
2023-01-18T00:15:18.090Z,95.61
2023-01-18T00:16:18.183Z,95.50
2023-01-18T00:17:18.087Z,96.03
2023-01-18T00:18:18.100Z,95.54
2023-01-18T00:19:18.061Z,95.61
2023-01-18T00:20:18.034Z,95.44
2023-01-18T00:21:18.054Z,94.74
2023-01-18T00:22:18.014Z,95.37
2023-01-18T00:23:18.008Z,95.59
2023-01-18T00:24:18.047Z,95.90
2023-01-18T00:25:17.990Z,95.59
2023-01-18T00:26:17.992Z,95.69
2023-01-18T00:27:17.979Z,95.42
2023-01-18T00:28:17.955Z,97.22
2023-01-18T00:29:17.946Z,96.86
2023-01-18T00:30:17.979Z,96.64
2023-01-18T00:31:17.989Z,95.80
2023-01-18T00:32:17.933Z,95.48
2023-01-18T00:33:17.918Z,95.69
2023-01-18T00:34:17.894Z,95.42
2023-01-18T00:35:17.885Z,95.73
2023-01-18T00:36:17.930Z,96.05
2023-01-18T00:37:17.862Z,95.95
2023-01-18T00:38:17.850Z,95.73
2023-01-18T00:39:17.853Z,96.05
2023-01-18T00:40:17.830Z,96.31
2023-01-18T00:41:17.818Z,95.89
2023-01-18T00:42:17.858Z,96.26
2023-01-18T00:43:17.804Z,95.67
2023-01-18T00:44:17.800Z,95.53
2023-01-18T00:45:17.779Z,94.04
2023-01-18T00:46:17.770Z,92.94
2023-01-18T00:47:17.759Z,92.73
2023-01-18T00:48:17.805Z,92.35
2023-01-18T00:49:17.742Z,93.30
2023-01-18T00:50:17.734Z,93.41
2023-01-18T00:51:17.714Z,94.46
2023-01-18T00:52:17.703Z,94.72
2023-01-18T00:53:17.698Z,95.04
2023-01-18T00:54:17.738Z,95.14
2023-01-18T00:55:17.682Z,94.82
2023-01-18T00:56:17.671Z,94.19
2023-01-18T00:57:17.655Z,94.61
2023-01-18T00:58:17.655Z,93.83
2023-01-18T00:59:17.634Z,93.83
2023-01-18T01:00:17.681Z,93.44
2023-01-18T01:01:17.837Z,93.44
2023-01-18T01:02:17.690Z,93.55
2023-01-18T01:03:17.591Z,93.77
2023-01-18T01:04:17.610Z,93.83
2023-01-18T01:05:17.576Z,93.98
2023-01-18T01:06:17.629Z,94.29
2023-01-18T01:07:17.551Z,94.19
2023-01-18T01:08:17.570Z,94.51
2023-01-18T01:09:17.527Z,94.25
2023-01-18T01:10:17.525Z,94.51
2023-01-18T01:11:17.509Z,94.93
2023-01-18T01:12:17.560Z,94.93
2023-01-18T01:13:17.503Z,95.29
2023-01-18T01:14:17.488Z,95.18
2023-01-18T01:15:17.468Z,94.98
2023-01-18T01:16:17.525Z,94.98
2023-01-18T01:17:17.445Z,95.25
2023-01-18T01:18:17.480Z,94.55
2023-01-18T01:19:17.435Z,95.78
2023-01-18T01:20:17.451Z,95.14
2023-01-18T01:21:17.428Z,95.78
2023-01-18T01:22:17.502Z,95.14
2023-01-18T01:23:17.382Z,95.93
2023-01-18T01:24:17.428Z,96.03
2023-01-18T01:25:17.362Z,95.61
2023-01-18T01:26:17.356Z,96.03
2023-01-18T01:27:17.343Z,95.93
2023-01-18T01:28:17.343Z,96.03
2023-01-18T01:29:17.319Z,96.19
2023-01-18T01:30:17.398Z,95.72
2023-01-18T01:31:17.300Z,95.50
2023-01-18T01:32:17.292Z,95.61
2023-01-18T01:33:17.279Z,95.61
2023-01-18T01:34:17.274Z,95.82
2023-01-18T01:35:17.256Z,95.72
2023-01-18T01:36:17.321Z,95.61
2023-01-18T01:37:17.239Z,95.97
2023-01-18T01:38:17.230Z,95.61
2023-01-18T01:39:17.219Z,95.65
2023-01-18T01:40:17.212Z,95.82
2023-01-18T01:41:17.228Z,95.61
2023-01-18T01:42:17.261Z,95.82
2023-01-18T01:43:17.176Z,95.50
2023-01-18T01:44:17.168Z,95.29
2023-01-18T01:45:17.162Z,95.61
2023-01-18T01:46:17.148Z,95.50
2023-01-18T01:47:17.145Z,95.87
2023-01-18T01:48:17.180Z,95.76
2023-01-18T01:49:17.111Z,95.61
2023-01-18T01:50:17.109Z,95.54
2023-01-18T01:51:17.095Z,95.18
2023-01-18T01:52:17.110Z,95.82
2023-01-18T01:53:17.089Z,95.82
2023-01-18T01:54:17.124Z,95.99
2023-01-18T01:55:17.053Z,95.57
2023-01-18T01:56:17.047Z,95.08
2023-01-18T01:57:17.032Z,94.82
2023-01-18T01:58:17.043Z,95.08
2023-01-18T01:59:17.033Z,94.82
2023-01-18T02:00:17.060Z,95.14
2023-01-18T02:01:17.078Z,94.61
2023-01-18T02:02:16.997Z,95.04
2023-01-18T02:03:16.968Z,95.25
2023-01-18T02:04:16.960Z,95.18
2023-01-18T02:05:16.968Z,94.76
2023-01-18T02:06:17.016Z,94.55
2023-01-18T02:07:16.926Z,95.36
2023-01-18T02:08:16.937Z,95.82
2023-01-18T02:09:16.906Z,95.82
2023-01-18T02:10:16.908Z,95.82
2023-01-18T02:11:16.887Z,95.82
2023-01-18T02:12:16.932Z,95.82
2023-01-18T02:13:16.863Z,95.82
2023-01-18T02:14:16.875Z,95.18
2023-01-18T02:15:19.136Z,95.82
2023-01-18T02:16:16.893Z,95.50
2023-01-18T02:17:16.827Z,95.36
2023-01-18T02:18:16.879Z,95.82
2023-01-18T02:19:16.814Z,95.82
2023-01-18T02:20:16.807Z,95.50
2023-01-18T02:21:16.794Z,95.61
2023-01-18T02:22:16.782Z,95.78
2023-01-18T02:23:16.760Z,94.61
2023-01-18T02:24:16.800Z,94.93
2023-01-18T02:25:16.752Z,95.25
2023-01-18T02:26:16.732Z,95.04
2023-01-18T02:27:16.718Z,94.65
2023-01-18T02:28:16.711Z,94.91
2023-01-18T02:29:16.708Z,95.93
2023-01-18T02:30:16.708Z,95.82
2023-01-18T02:31:16.682Z,95.65
2023-01-18T02:32:16.668Z,95.50
2023-01-18T02:33:16.659Z,95.61
2023-01-18T02:34:16.651Z,94.61
2023-01-18T02:35:16.646Z,94.76
2023-01-18T02:36:16.638Z,94.61
2023-01-18T02:37:16.623Z,95.50
2023-01-18T02:38:16.608Z,95.18
2023-01-18T02:39:16.604Z,95.36
2023-01-18T02:40:16.615Z,95.08
2023-01-18T02:41:16.587Z,95.61
2023-01-18T02:42:16.568Z,95.50
2023-01-18T02:43:16.552Z,95.82
2023-01-18T02:44:16.555Z,95.78
2023-01-18T02:45:16.532Z,96.14
2023-01-18T02:46:16.589Z,96.03
2023-01-18T02:47:16.527Z,95.72
2023-01-18T02:48:16.522Z,96.25
2023-01-18T02:49:16.490Z,95.82
2023-01-18T02:50:24.017Z,95.57
2023-01-18T02:51:23.992Z,95.40
2023-01-18T02:52:16.467Z,95.78
2023-01-18T02:53:16.453Z,95.78
2023-01-18T02:54:16.452Z,95.67
2023-01-18T02:55:16.430Z,95.82
2023-01-18T02:56:16.450Z,95.61
2023-01-18T02:57:16.412Z,95.61
2023-01-18T02:58:16.400Z,94.87
2023-01-18T02:59:16.402Z,94.61
2023-01-18T03:00:16.392Z,94.87
2023-01-18T03:01:16.604Z,94.76
2023-01-18T03:02:16.411Z,95.14
2023-01-18T03:03:16.345Z,94.93
2023-01-18T03:04:16.350Z,94.72
2023-01-18T03:05:16.327Z,94.93
2023-01-18T03:06:16.334Z,95.04
2023-01-18T03:07:16.305Z,95.04
2023-01-18T03:08:16.301Z,94.51
2023-01-18T03:09:16.294Z,94.72
2023-01-18T03:10:16.285Z,94.82
2023-01-18T03:11:16.262Z,95.14
2023-01-18T03:12:16.279Z,94.78
2023-01-18T03:13:16.244Z,94.93
2023-01-18T03:14:16.235Z,94.93
2023-01-18T03:15:16.328Z,94.68
2023-01-18T03:16:16.227Z,94.68
2023-01-18T03:17:16.202Z,94.57
2023-01-18T03:18:16.196Z,94.89
2023-01-18T03:19:16.185Z,95.00
2023-01-18T03:20:16.175Z,94.25
2023-01-18T03:21:16.174Z,94.36
2023-01-18T03:22:16.164Z,94.46
2023-01-18T03:23:16.141Z,95.00
2023-01-18T03:24:16.127Z,94.57
2023-01-18T03:25:16.119Z,95.14
2023-01-18T03:26:16.111Z,94.78
2023-01-18T03:27:16.110Z,95.10
2023-01-18T03:28:16.147Z,95.21
2023-01-18T03:29:16.086Z,93.87
2023-01-18T03:30:16.081Z,94.13
2023-01-18T03:31:16.143Z,93.80
2023-01-18T03:32:16.056Z,94.06
2023-01-18T03:33:16.041Z,95.34
2023-01-18T03:34:16.036Z,95.34
2023-01-18T03:35:16.018Z,95.87
2023-01-18T03:36:16.007Z,96.25
2023-01-18T03:37:16.000Z,96.88
2023-01-18T03:38:15.994Z,97.20
2023-01-18T03:39:15.980Z,95.97
2023-01-18T03:40:15.969Z,95.82
2023-01-18T03:41:15.953Z,94.76
2023-01-18T03:42:15.946Z,94.98
2023-01-18T03:43:15.948Z,95.08
2023-01-18T03:44:15.956Z,95.04
2023-01-18T03:45:15.914Z,95.08
2023-01-18T03:46:15.947Z,94.82
2023-01-18T03:47:15.903Z,94.76
2023-01-18T03:48:15.887Z,95.18
2023-01-18T03:49:15.882Z,94.82
2023-01-18T03:50:15.859Z,95.14
2023-01-18T03:51:15.869Z,94.89
2023-01-18T03:52:15.847Z,94.25
2023-01-18T03:53:15.830Z,94.09
2023-01-18T03:54:15.820Z,94.25
2023-01-18T03:55:15.808Z,94.72
2023-01-18T03:56:16.011Z,95.50
2023-01-18T03:57:15.805Z,95.78
2023-01-18T03:58:15.793Z,95.04
2023-01-18T03:59:15.772Z,94.82
2023-01-18T04:00:15.772Z,94.40
2023-01-18T04:01:15.959Z,94.82
2023-01-18T04:02:15.732Z,94.72
2023-01-18T04:03:15.801Z,93.93
2023-01-18T04:04:15.739Z,93.41
2023-01-18T04:05:15.781Z,93.93
2023-01-18T04:06:15.692Z,94.78
2023-01-18T04:07:15.688Z,92.92
2023-01-18T04:08:15.669Z,91.71
2023-01-18T04:09:15.663Z,90.65
2023-01-18T04:10:15.665Z,88.64
2023-01-18T04:11:15.655Z,87.23
2023-01-18T04:12:15.636Z,87.01
2023-01-18T04:13:15.624Z,87.58
2023-01-18T04:14:15.610Z,88.39
2023-01-18T04:15:15.605Z,91.18
2023-01-18T04:16:15.713Z,91.82
2023-01-18T04:17:15.598Z,91.18
2023-01-18T04:18:15.573Z,89.81
2023-01-18T04:19:15.564Z,89.81
2023-01-18T04:20:15.546Z,90.23
2023-01-18T04:21:15.560Z,89.38
2023-01-18T04:22:15.554Z,88.07
2023-01-18T04:23:15.519Z,89.06
2023-01-18T04:24:15.516Z,89.06
2023-01-18T04:25:15.529Z,87.69
2023-01-18T04:26:15.485Z,88.85
2023-01-18T04:27:15.502Z,89.59
2023-01-18T04:28:15.477Z,89.59
2023-01-18T04:29:15.461Z,89.28
2023-01-18T04:30:15.461Z,89.49
2023-01-18T04:31:15.471Z,89.91
2023-01-18T04:32:15.444Z,90.48
2023-01-18T04:33:15.535Z,91.44
2023-01-18T04:34:15.412Z,91.64
2023-01-18T04:35:15.401Z,91.64
2023-01-18T04:36:15.388Z,91.82
2023-01-18T04:37:15.373Z,92.39
2023-01-18T04:38:15.364Z,92.49
2023-01-18T04:39:15.377Z,92.35
2023-01-18T04:40:15.348Z,93.19
2023-01-18T04:41:15.333Z,92.98
2023-01-18T04:42:15.318Z,92.60
2023-01-18T04:43:15.412Z,92.49
2023-01-18T04:44:15.298Z,92.56
2023-01-18T04:45:15.296Z,92.88
2023-01-18T04:46:15.384Z,91.82
2023-01-18T04:47:15.276Z,91.71
2023-01-18T04:48:15.301Z,91.50
2023-01-18T04:49:15.371Z,91.56
2023-01-18T04:50:15.234Z,91.50
2023-01-18T04:51:15.231Z,91.46
2023-01-18T04:52:15.231Z,91.25
2023-01-18T04:53:15.205Z,90.82
2023-01-18T04:54:15.202Z,91.67
2023-01-18T04:55:15.213Z,91.67
2023-01-18T04:56:15.178Z,92.66
2023-01-18T04:57:15.168Z,92.24
2023-01-18T04:58:15.174Z,92.35
2023-01-18T04:59:15.155Z,92.24
2023-01-18T05:00:15.137Z,92.45
2023-01-18T05:01:15.294Z,91.82
2023-01-18T05:02:15.361Z,92.35
2023-01-18T05:03:15.102Z,92.66
2023-01-18T05:04:15.117Z,92.35
2023-01-18T05:05:15.106Z,93.09
2023-01-18T05:06:15.083Z,93.73
2023-01-18T05:07:15.062Z,92.35
2023-01-18T05:08:15.050Z,92.13
2023-01-18T05:09:15.040Z,92.45
2023-01-18T05:10:15.054Z,91.46
2023-01-18T05:11:15.026Z,91.14
2023-01-18T05:12:15.029Z,91.35
2023-01-18T05:13:14.999Z,91.18
2023-01-18T05:14:14.989Z,90.61
2023-01-18T05:15:14.979Z,91.35
2023-01-18T05:16:15.024Z,91.46
2023-01-18T05:17:14.960Z,91.56
2023-01-18T05:18:14.961Z,91.52
2023-01-18T05:19:14.936Z,92.26
2023-01-18T05:20:14.945Z,91.63
2023-01-18T05:21:14.917Z,91.14
2023-01-18T05:22:14.921Z,90.36
2023-01-18T05:23:14.909Z,91.31
2023-01-18T05:24:14.883Z,91.31
2023-01-18T05:25:14.884Z,91.52
2023-01-18T05:26:14.875Z,91.84
2023-01-18T05:27:14.855Z,90.89
2023-01-18T05:28:14.856Z,90.67
2023-01-18T05:29:14.848Z,89.72
2023-01-18T05:30:14.818Z,89.30
2023-01-18T05:31:14.922Z,88.73
2023-01-18T05:32:14.815Z,88.94
2023-01-18T05:33:14.794Z,89.05
2023-01-18T05:34:14.799Z,88.84
2023-01-18T05:35:14.870Z,89.69
2023-01-18T05:36:14.774Z,90.42
2023-01-18T05:37:14.770Z,90.53
2023-01-18T05:38:14.734Z,90.78
2023-01-18T05:39:14.745Z,90.84
2023-01-18T05:40:14.734Z,91.52
2023-01-18T05:41:14.723Z,90.89
2023-01-18T05:42:14.697Z,91.42
2023-01-18T05:43:14.686Z,91.42
2023-01-18T05:44:14.685Z,91.84
2023-01-18T05:45:14.666Z,92.10
2023-01-18T05:46:14.688Z,92.20
2023-01-18T05:47:14.658Z,92.37
2023-01-18T05:48:14.634Z,91.52
2023-01-18T05:49:14.620Z,90.57
2023-01-18T05:50:14.608Z,90.82
2023-01-18T05:51:14.611Z,91.03
2023-01-18T05:52:14.612Z,91.03
2023-01-18T05:53:14.587Z,90.82
2023-01-18T05:54:14.572Z,90.72
2023-01-18T05:55:14.557Z,91.03
2023-01-18T05:56:14.544Z,91.50
2023-01-18T05:57:14.548Z,91.35
2023-01-18T05:58:14.548Z,89.81
2023-01-18T05:59:14.532Z,89.13
2023-01-18T06:00:14.512Z,90.86
2023-01-18T06:01:14.568Z,89.55
2023-01-18T06:02:14.516Z,89.17
2023-01-18T06:03:14.469Z,89.70
2023-01-18T06:04:14.530Z,89.55
2023-01-18T06:05:14.455Z,90.72
2023-01-18T06:06:14.436Z,90.61
2023-01-18T06:07:14.427Z,90.78
2023-01-18T06:08:14.439Z,89.87
2023-01-18T06:09:14.420Z,89.66
2023-01-18T06:10:14.403Z,90.78
2023-01-18T06:11:14.388Z,90.50
2023-01-18T06:12:14.373Z,90.61
2023-01-18T06:13:14.384Z,91.03
2023-01-18T06:14:14.353Z,91.03
2023-01-18T06:15:14.360Z,91.35
2023-01-18T06:16:14.355Z,90.76
2023-01-18T06:17:14.339Z,90.65
2023-01-18T06:18:14.309Z,90.65
2023-01-18T06:19:14.322Z,89.59
2023-01-18T06:20:14.396Z,90.01
2023-01-18T06:21:14.301Z,89.55
2023-01-18T06:22:14.263Z,89.55
2023-01-18T06:23:14.265Z,89.23
2023-01-18T06:24:14.275Z,89.34
2023-01-18T06:25:14.260Z,89.66
2023-01-18T06:26:14.232Z,90.55
2023-01-18T06:27:14.227Z,91.08
2023-01-18T06:28:14.203Z,90.65
2023-01-18T06:29:14.194Z,90.76
2023-01-18T06:30:14.290Z,90.93
2023-01-18T06:31:14.171Z,91.44
2023-01-18T06:32:14.156Z,91.64
2023-01-18T06:33:14.161Z,90.86
2023-01-18T06:34:14.136Z,90.55
2023-01-18T06:35:14.128Z,90.23
2023-01-18T06:36:14.127Z,90.65
2023-01-18T06:37:14.111Z,90.86
2023-01-18T06:38:14.137Z,90.12
2023-01-18T06:39:14.111Z,90.48
2023-01-18T06:40:14.124Z,89.84
2023-01-18T06:41:14.086Z,89.74
2023-01-18T06:42:14.062Z,90.16
2023-01-18T06:43:14.427Z,91.37
2023-01-18T06:44:14.028Z,91.54
2023-01-18T06:45:14.031Z,91.69
2023-01-18T06:46:14.063Z,92.60
2023-01-18T06:47:14.011Z,91.90
2023-01-18T06:48:13.990Z,92.54
2023-01-18T06:49:13.983Z,91.58
2023-01-18T06:50:13.978Z,91.16
2023-01-18T06:51:13.997Z,90.88
2023-01-18T06:52:13.954Z,91.73
2023-01-18T06:53:13.962Z,91.63
2023-01-18T06:54:13.923Z,92.36
2023-01-18T06:55:13.915Z,92.19
2023-01-18T06:56:13.919Z,92.83
2023-01-18T06:57:13.911Z,92.30
2023-01-18T06:58:13.898Z,92.68
2023-01-18T06:59:13.873Z,92.05
2023-01-18T07:00:13.868Z,91.09
2023-01-18T07:01:13.999Z,91.30
2023-01-18T07:02:13.919Z,91.63
2023-01-18T07:03:13.853Z,92.32
2023-01-18T07:04:13.899Z,92.05
2023-01-18T07:05:13.817Z,92.15
2023-01-18T07:06:13.808Z,91.73
2023-01-18T07:07:13.793Z,91.94
2023-01-18T07:08:13.783Z,91.52
2023-01-18T07:09:13.785Z,91.63
2023-01-18T07:10:16.265Z,91.52
2023-01-18T07:11:13.749Z,91.30
2023-01-18T07:12:13.795Z,90.73
2023-01-18T07:13:13.726Z,90.95
2023-01-18T07:14:13.719Z,91.05
2023-01-18T07:15:21.533Z,90.88
2023-01-18T07:16:14.704Z,90.84
2023-01-18T07:17:13.689Z,91.16
2023-01-18T07:18:13.693Z,90.84
2023-01-18T07:19:13.664Z,91.27
2023-01-18T07:20:13.651Z,90.95
2023-01-18T07:21:15.213Z,90.95
2023-01-18T07:22:13.631Z,91.20
2023-01-18T07:23:13.623Z,91.20
2023-01-18T07:24:13.624Z,90.99
2023-01-18T07:25:13.821Z,91.73
2023-01-18T07:26:13.590Z,91.83
2023-01-18T07:27:13.619Z,91.20
2023-01-18T07:28:13.599Z,91.09
2023-01-18T07:29:13.570Z,90.99
2023-01-18T07:30:13.545Z,91.37
2023-01-18T07:31:13.541Z,90.84
2023-01-18T07:32:13.527Z,90.62
2023-01-18T07:33:13.545Z,90.73
2023-01-18T07:34:13.515Z,90.52
2023-01-18T07:35:13.499Z,89.82
2023-01-18T07:36:13.494Z,89.99
2023-01-18T07:37:13.477Z,89.57
2023-01-18T07:38:13.469Z,89.42
2023-01-18T07:39:13.484Z,89.89
2023-01-18T07:40:13.449Z,89.57
2023-01-18T07:41:13.435Z,89.57
2023-01-18T07:42:13.428Z,89.67
2023-01-18T07:43:13.416Z,89.53
2023-01-18T07:44:13.426Z,90.10
2023-01-18T07:45:13.423Z,89.57
2023-01-18T07:46:13.406Z,89.21
2023-01-18T07:47:13.372Z,89.31
2023-01-18T07:48:13.368Z,89.53
2023-01-18T07:49:13.370Z,89.53
2023-01-18T07:50:13.345Z,88.96
2023-01-18T07:51:13.342Z,89.42
2023-01-18T07:52:13.344Z,90.20
2023-01-18T07:53:13.319Z,90.59
2023-01-18T07:54:13.323Z,91.22
2023-01-18T07:55:13.287Z,91.12
2023-01-18T07:56:13.283Z,90.95
2023-01-18T07:57:13.291Z,89.64
2023-01-18T07:58:13.363Z,89.36
2023-01-18T07:59:13.257Z,89.64
2023-01-18T08:00:13.273Z,89.42
2023-01-18T08:01:13.366Z,89.31
2023-01-18T08:02:13.249Z,89.57
2023-01-18T08:03:13.231Z,89.99
2023-01-18T08:04:13.207Z,91.01
2023-01-18T08:05:13.197Z,90.27
2023-01-18T08:06:13.179Z,91.12
2023-01-18T08:07:13.168Z,91.12
2023-01-18T08:08:13.176Z,91.12
2023-01-18T08:09:13.161Z,90.80
2023-01-18T08:10:13.148Z,89.95
2023-01-18T08:11:13.130Z,89.89
2023-01-18T08:12:13.119Z,90.55
2023-01-18T08:13:13.103Z,90.55
2023-01-18T08:14:13.115Z,90.80
2023-01-18T08:15:13.096Z,90.69
2023-01-18T08:16:13.274Z,90.69
2023-01-18T08:17:13.080Z,90.59
2023-01-18T08:18:13.058Z,90.80
2023-01-18T08:19:13.044Z,90.55
2023-01-18T08:20:13.045Z,90.97
2023-01-18T08:21:13.030Z,90.44
2023-01-18T08:22:13.024Z,90.12
2023-01-18T08:23:13.006Z,89.91
2023-01-18T08:24:13.015Z,89.59
2023-01-18T08:25:12.988Z,89.81
2023-01-18T08:26:13.005Z,89.59
2023-01-18T08:27:12.969Z,89.59
2023-01-18T08:28:12.952Z,89.23
2023-01-18T08:29:12.940Z,89.06
2023-01-18T08:30:12.965Z,89.28
2023-01-18T08:31:13.027Z,88.75
2023-01-18T08:32:12.944Z,88.64
2023-01-18T08:33:12.901Z,88.85
2023-01-18T08:34:12.893Z,89.28
2023-01-18T08:35:12.878Z,88.81
2023-01-18T08:36:12.882Z,88.85
2023-01-18T08:37:12.872Z,89.13
2023-01-18T08:38:12.858Z,88.81
2023-01-18T08:39:12.837Z,89.38
2023-01-18T08:40:13.404Z,89.03
2023-01-18T08:41:12.815Z,88.60
2023-01-18T08:42:12.822Z,89.38
2023-01-18T08:43:12.796Z,88.60
2023-01-18T08:44:12.810Z,88.75
2023-01-18T08:45:12.775Z,88.60
2023-01-18T08:46:12.794Z,88.07
2023-01-18T08:47:12.753Z,87.86
2023-01-18T08:48:12.789Z,87.75
2023-01-18T08:49:12.733Z,87.54
2023-01-18T08:50:12.751Z,87.71
2023-01-18T08:51:12.717Z,88.07
2023-01-18T08:52:12.704Z,88.92
2023-01-18T08:53:12.689Z,89.13
2023-01-18T08:54:12.683Z,90.01
2023-01-18T08:55:12.666Z,89.13
2023-01-18T08:56:12.689Z,89.17
2023-01-18T08:57:12.647Z,89.45
2023-01-18T08:58:12.644Z,89.06
2023-01-18T08:59:12.695Z,88.32
2023-01-18T09:00:12.641Z,85.96
2023-01-18T09:01:12.708Z,84.79
2023-01-18T09:02:12.671Z,84.69
2023-01-18T09:03:12.675Z,84.96
2023-01-18T09:04:12.674Z,85.42
2023-01-18T09:05:12.563Z,85.21
2023-01-18T09:06:13.185Z,84.16
2023-01-18T09:07:12.549Z,84.22
2023-01-18T09:08:12.569Z,84.47
2023-01-18T09:09:12.518Z,85.64
2023-01-18T09:10:12.516Z,86.59
2023-01-18T09:11:12.494Z,86.59
2023-01-18T09:12:12.503Z,87.12
2023-01-18T09:13:12.492Z,87.26
2023-01-18T09:14:12.481Z,87.48
2023-01-18T09:15:12.459Z,87.37
2023-01-18T09:16:12.529Z,87.43
2023-01-18T09:17:12.431Z,86.10
2023-01-18T09:18:12.434Z,85.32
2023-01-18T09:19:12.417Z,85.11
2023-01-18T09:20:12.474Z,85.60
2023-01-18T09:21:12.389Z,85.49
2023-01-18T09:22:12.392Z,85.96
2023-01-18T09:23:12.366Z,86.38
2023-01-18T09:24:12.371Z,86.27
2023-01-18T09:25:12.344Z,85.96
2023-01-18T09:26:12.355Z,86.02
2023-01-18T09:27:12.324Z,85.96
2023-01-18T09:28:12.328Z,85.53
2023-01-18T09:29:12.313Z,86.48
2023-01-18T09:30:19.814Z,85.74
2023-01-18T09:31:19.867Z,84.86
2023-01-18T09:32:19.801Z,84.01
2023-01-18T09:33:19.805Z,84.12
2023-01-18T09:34:20.304Z,83.48
2023-01-18T09:35:19.807Z,84.33
2023-01-18T09:36:12.243Z,83.65
2023-01-18T09:37:19.745Z,83.44
2023-01-18T09:38:19.741Z,83.80
2023-01-18T09:39:19.841Z,83.23
2023-01-18T09:40:19.713Z,82.24
2023-01-18T09:41:14.104Z,81.74
2023-01-18T09:42:12.170Z,80.69
2023-01-18T09:43:12.156Z,80.62
2023-01-18T09:44:12.151Z,79.74
2023-01-18T09:45:12.156Z,77.59
2023-01-18T09:46:12.148Z,76.68
2023-01-18T09:47:12.115Z,75.10
2023-01-18T09:48:12.121Z,73.60
2023-01-18T09:49:12.096Z,72.94
2023-01-18T09:50:12.097Z,72.38
2023-01-18T09:51:12.099Z,71.99
2023-01-18T09:52:12.101Z,72.20
2023-01-18T09:53:12.055Z,72.77
2023-01-18T09:54:12.055Z,73.19
2023-01-18T09:55:12.133Z,71.76
2023-01-18T09:56:12.044Z,70.99
2023-01-18T09:57:12.008Z,70.02
2023-01-18T09:58:12.000Z,70.06
2023-01-18T09:59:11.989Z,68.70
2023-01-18T10:00:11.996Z,65.77
2023-01-18T10:01:12.148Z,65.46
2023-01-18T10:02:12.094Z,65.38
2023-01-18T10:03:11.962Z,65.77
2023-01-18T10:04:11.949Z,66.64
2023-01-18T10:05:11.955Z,66.53
2023-01-18T10:06:11.944Z,68.21
2023-01-18T10:07:11.939Z,67.64
2023-01-18T10:08:11.900Z,66.77
2023-01-18T10:09:11.882Z,67.47
2023-01-18T10:10:11.878Z,67.27
2023-01-18T10:11:11.869Z,65.50
2023-01-18T10:12:11.861Z,65.89
2023-01-18T10:13:11.844Z,63.98
2023-01-18T10:14:11.831Z,63.56
2023-01-18T10:15:11.860Z,63.67
2023-01-18T10:16:11.846Z,63.67
2023-01-18T10:17:11.798Z,62.60
2023-01-18T10:18:11.818Z,62.39
2023-01-18T10:19:11.775Z,61.24
2023-01-18T10:20:11.769Z,62.29
2023-01-18T10:21:11.753Z,64.17
2023-01-18T10:22:11.757Z,63.44
2023-01-18T10:23:11.796Z,64.26
2023-01-18T10:24:11.724Z,67.64
2023-01-18T10:25:11.711Z,69.16
2023-01-18T10:26:11.704Z,65.10
2023-01-18T10:27:11.704Z,62.64
2023-01-18T10:28:11.684Z,62.36
2023-01-18T10:29:11.707Z,62.88
2023-01-18T10:30:11.667Z,64.26
2023-01-18T10:31:11.689Z,63.75
2023-01-18T10:32:11.640Z,64.61
2023-01-18T10:33:11.635Z,64.32
2023-01-18T10:34:11.622Z,64.53
2023-01-18T10:35:11.681Z,65.19
2023-01-18T10:36:11.895Z,66.30
2023-01-18T10:37:11.582Z,67.34
2023-01-18T10:38:11.578Z,67.00
2023-01-18T10:39:11.596Z,65.70
2023-01-18T10:40:11.568Z,67.82
2023-01-18T10:41:11.576Z,68.75
2023-01-18T10:42:11.530Z,69.45
2023-01-18T10:43:11.520Z,70.53
2023-01-18T10:44:11.521Z,71.68
2023-01-18T10:45:11.500Z,71.61
2023-01-18T10:46:11.578Z,71.11
2023-01-18T10:47:11.535Z,72.62
2023-01-18T10:48:11.468Z,73.46
2023-01-18T10:49:11.458Z,72.55
2023-01-18T10:50:11.446Z,70.95
2023-01-18T10:51:11.437Z,70.01
2023-01-18T10:52:11.442Z,69.45
2023-01-18T10:53:11.462Z,67.37
2023-01-18T10:54:11.408Z,66.89
2023-01-18T10:55:11.415Z,65.98
2023-01-18T10:56:11.388Z,66.08
2023-01-18T10:57:11.371Z,65.71
2023-01-18T10:58:11.377Z,65.73
2023-01-18T10:59:11.373Z,64.16
2023-01-18T11:00:11.357Z,64.86
2023-01-18T11:01:11.449Z,64.65
2023-01-18T11:02:11.505Z,63.48
2023-01-18T11:03:11.335Z,64.18
2023-01-18T11:04:11.301Z,63.24
2023-01-18T11:05:11.336Z,62.57
2023-01-18T11:06:11.291Z,62.91
2023-01-18T11:07:11.281Z,64.29
2023-01-18T11:08:11.267Z,64.09
2023-01-18T11:09:11.244Z,64.13
2023-01-18T11:10:11.233Z,64.42
2023-01-18T11:11:11.296Z,62.72
2023-01-18T11:12:11.223Z,64.07
2023-01-18T11:13:11.198Z,64.28
2023-01-18T11:14:11.192Z,63.01
2023-01-18T11:15:11.175Z,62.84
2023-01-18T11:16:11.173Z,65.23
2023-01-18T11:17:11.227Z,64.13
2023-01-18T11:18:11.144Z,64.03
2023-01-18T11:19:11.133Z,64.74
2023-01-18T11:20:11.127Z,65.26
2023-01-18T11:21:11.108Z,65.37
2023-01-18T11:22:11.102Z,65.40
2023-01-18T11:23:11.146Z,66.88
2023-01-18T11:24:11.081Z,68.41
2023-01-18T11:25:11.062Z,68.66
2023-01-18T11:26:11.057Z,68.59
2023-01-18T11:27:11.101Z,67.38
2023-01-18T11:28:11.056Z,66.88
2023-01-18T11:29:11.078Z,65.17
2023-01-18T11:30:11.016Z,63.92
2023-01-18T11:31:11.002Z,64.79
2023-01-18T11:32:11.077Z,64.61
2023-01-18T11:33:10.994Z,65.97
2023-01-18T11:34:10.972Z,67.50
2023-01-18T11:35:10.961Z,66.53
2023-01-18T11:36:10.983Z,65.88
2023-01-18T11:37:10.967Z,65.48
2023-01-18T11:38:10.932Z,65.52
2023-01-18T11:39:10.914Z,66.46
2023-01-18T11:40:10.906Z,65.75
2023-01-18T11:41:10.913Z,65.97
2023-01-18T11:42:10.938Z,64.61
2023-01-18T11:43:10.887Z,65.44
2023-01-18T11:44:10.861Z,64.79
2023-01-18T11:45:10.846Z,65.17
2023-01-18T11:46:10.902Z,65.25
2023-01-18T11:47:10.840Z,64.21
2023-01-18T11:48:10.877Z,63.32
2023-01-18T11:49:10.803Z,64.04
2023-01-18T11:50:21.624Z,65.06
2023-01-18T11:51:11.790Z,65.00
2023-01-18T11:52:10.875Z,64.21
2023-01-18T11:53:10.777Z,63.00
2023-01-18T11:54:10.788Z,62.45
2023-01-18T11:55:10.736Z,61.54
2023-01-18T11:56:10.720Z,61.72
2023-01-18T11:57:10.711Z,62.53
2023-01-18T11:58:10.712Z,62.55
2023-01-18T11:59:10.806Z,62.95
2023-01-18T12:00:10.703Z,62.19
2023-01-18T12:01:10.745Z,62.51
2023-01-18T12:02:10.713Z,62.69
2023-01-18T12:03:10.738Z,63.45
2023-01-18T12:04:10.638Z,63.53
2023-01-18T12:05:10.624Z,63.42
2023-01-18T12:06:10.646Z,63.58
2023-01-18T12:07:10.604Z,62.88
2023-01-18T12:08:10.694Z,64.11
2023-01-18T12:09:10.670Z,63.94
2023-01-18T12:10:10.596Z,62.66
2023-01-18T12:11:10.593Z,62.66
2023-01-18T12:12:19.082Z,62.95
2023-01-18T12:13:11.555Z,63.49
2023-01-18T12:14:10.527Z,63.42
2023-01-18T12:15:10.562Z,63.84
2023-01-18T12:16:10.636Z,64.07
2023-01-18T12:17:10.496Z,63.78
2023-01-18T12:18:14.088Z,64.19
2023-01-18T12:19:10.495Z,64.46
2023-01-18T12:20:10.457Z,64.32
2023-01-18T12:21:10.456Z,65.30
2023-01-18T12:22:10.436Z,64.42
2023-01-18T12:23:10.429Z,64.97
2023-01-18T12:24:10.446Z,65.70
2023-01-18T12:25:10.434Z,65.62
2023-01-18T12:26:12.627Z,66.98
2023-01-18T12:27:10.402Z,66.16
2023-01-18T12:28:10.376Z,65.84
2023-01-18T12:29:10.373Z,65.37
2023-01-18T12:30:13.705Z,65.16
2023-01-18T12:31:10.452Z,65.01
2023-01-18T12:32:10.331Z,65.38
2023-01-18T12:33:10.320Z,66.20
2023-01-18T12:34:10.318Z,67.73
2023-01-18T12:35:23.325Z,69.40
2023-01-18T12:36:11.339Z,70.03
2023-01-18T12:37:10.277Z,70.24
2023-01-18T12:38:13.365Z,71.24
2023-01-18T12:39:17.778Z,70.72
2023-01-18T12:40:10.240Z,71.80
2023-01-18T12:41:10.242Z,72.35
2023-01-18T12:42:10.221Z,72.81
2023-01-18T12:43:17.733Z,73.33
2023-01-18T12:44:17.719Z,73.22
2023-01-18T12:45:10.189Z,73.36
2023-01-18T12:46:17.824Z,73.39
2023-01-18T12:47:17.688Z,73.15
2023-01-18T12:48:10.158Z,73.08
2023-01-18T12:49:17.665Z,74.13
2023-01-18T12:50:10.131Z,74.34
2023-01-18T12:51:10.123Z,74.55
2023-01-18T12:52:18.517Z,73.50